Niles, Indiana
Current Conditions -  °F | °C
As of 9:11 PM on Thursday 18 Dec 2014 (Local Time) from KMIE Reporting Station
Overcast Overcast  
Wind Chill: 19°   Ceiling: 1400
Heat Index: 27°   Visibility: 7mi
Dew Point: 23°   Wind: 8mph
Humidity: 85%   Direction: 340°NNW
Pressure: 30.22"   Gusts: NA
Location:  40.3453°N, 85.3353°W
Report Text: KMIE 190211Z 34007KT 7SM OVC014 M03/M05 A3022 RMK AO2 T10281050
Loading
Personal Weather Stations






























Interactive Weather Map New forecast layout! Learn more

10-Day Weather Forecast

Advertisements
Track Severe Weather on mobile